sensor_id;sensor_type;location;lat;lon;timestamp;P1;durP1;ratioP1;P2;durP2;ratioP2
71383;SDS011;67558;52.166;5.004;2023-05-29T00:00:11;18.98;;;17.65;;
71383;SDS011;67558;52.166;5.004;2023-05-29T00:02:38;14.85;;;13.98;;
71383;SDS011;67558;52.166;5.004;2023-05-29T00:05:04;16.33;;;15.43;;
71383;SDS011;67558;52.166;5.004;2023-05-29T00:07:30;16.98;;;15.65;;
71383;SDS011;67558;52.166;5.004;2023-05-29T00:09:57;15.77;;;13.80;;
71383;SDS011;67558;52.166;5.004;2023-05-29T00:12:23;14.20;;;13.40;;
71383;SDS011;67558;52.166;5.004;2023-05-29T00:14:49;14.38;;;13.32;;
71383;SDS011;67558;52.166;5.004;2023-05-29T00:17:14;15.65;;;14.52;;
71383;SDS011;67558;52.166;5.004;2023-05-29T00:19:40;14.18;;;13.43;;
71383;SDS011;67558;52.166;5.004;2023-05-29T00:22:06;26.40;;;25.00;;
71383;SDS011;67558;52.166;5.004;2023-05-29T00:24:32;14.75;;;13.80;;
71383;SDS011;67558;52.166;5.004;2023-05-29T00:26:57;14.20;;;13.40;;
71383;SDS011;67558;52.166;5.004;2023-05-29T00:29:22;15.63;;;14.48;;
71383;SDS011;67558;52.166;5.004;2023-05-29T00:31:48;16.17;;;14.70;;
71383;SDS011;67558;52.166;5.004;2023-05-29T00:34:13;15.25;;;14.55;;
71383;SDS011;67558;52.166;5.004;2023-05-29T00:36:39;16.45;;;14.80;;
71383;SDS011;67558;52.166;5.004;2023-05-29T00:39:04;14.30;;;13.45;;
71383;SDS011;67558;52.166;5.004;2023-05-29T00:41:30;15.50;;;14.40;;
71383;SDS011;67558;52.166;5.004;2023-05-29T00:43:55;16.13;;;15.15;;
71383;SDS011;67558;52.166;5.004;2023-05-29T00:46:21;12.48;;;11.40;;
71383;SDS011;67558;52.166;5.004;2023-05-29T00:48:46;15.13;;;14.15;;
71383;SDS011;67558;52.166;5.004;2023-05-29T00:51:12;15.25;;;14.07;;
71383;SDS011;67558;52.166;5.004;2023-05-29T00:53:40;16.00;;;15.10;;
71383;SDS011;67558;52.166;5.004;2023-05-29T00:56:08;13.38;;;12.38;;
71383;SDS011;67558;52.166;5.004;2023-05-29T00:58:35;14.95;;;13.88;;
71383;SDS011;67558;52.166;5.004;2023-05-29T01:01:01;15.55;;;14.82;;
71383;SDS011;67558;52.166;5.004;2023-05-29T01:03:28;13.38;;;12.07;;
71383;SDS011;67558;52.166;5.004;2023-05-29T01:05:54;14.27;;;13.48;;
71383;SDS011;67558;52.166;5.004;2023-05-29T01:08:19;15.40;;;14.10;;
71383;SDS011;67558;52.166;5.004;2023-05-29T01:10:45;14.65;;;13.45;;
71383;SDS011;67558;52.166;5.004;2023-05-29T01:13:18;16.20;;;15.30;;
71383;SDS011;67558;52.166;5.004;2023-05-29T01:15:54;13.45;;;12.63;;
71383;SDS011;67558;52.166;5.004;2023-05-29T01:27:07;15.20;;;14.15;;
71383;SDS011;67558;52.166;5.004;2023-05-29T01:29:35;14.57;;;13.52;;
71383;SDS011;67558;52.166;5.004;2023-05-29T01:32:04;14.60;;;13.13;;
71383;SDS011;67558;52.166;5.004;2023-05-29T01:34:30;14.75;;;13.65;;
71383;SDS011;67558;52.166;5.004;2023-05-29T01:36:56;13.13;;;12.23;;
71383;SDS011;67558;52.166;5.004;2023-05-29T01:39:21;13.73;;;12.77;;
71383;SDS011;67558;52.166;5.004;2023-05-29T01:41:48;13.88;;;13.10;;
71383;SDS011;67558;52.166;5.004;2023-05-29T01:44:14;14.13;;;12.93;;
71383;SDS011;67558;52.166;5.004;2023-05-29T01:46:42;14.32;;;13.38;;
71383;SDS011;67558;52.166;5.004;2023-05-29T01:49:08;16.33;;;15.23;;
71383;SDS011;67558;52.166;5.004;2023-05-29T01:51:36;24.85;;;23.60;;
71383;SDS011;67558;52.166;5.004;2023-05-29T01:54:02;13.27;;;12.40;;
71383;SDS011;67558;52.166;5.004;2023-05-29T01:56:28;15.35;;;14.15;;
71383;SDS011;67558;52.166;5.004;2023-05-29T01:58:55;16.23;;;14.95;;
71383;SDS011;67558;52.166;5.004;2023-05-29T02:01:21;12.60;;;11.75;;
71383;SDS011;67558;52.166;5.004;2023-05-29T02:03:47;12.93;;;12.07;;
71383;SDS011;67558;52.166;5.004;2023-05-29T02:06:12;12.80;;;12.25;;
71383;SDS011;67558;52.166;5.004;2023-05-29T02:08:38;24.90;;;23.55;;
71383;SDS011;67558;52.166;5.004;2023-05-29T02:11:03;13.90;;;12.75;;
71383;SDS011;67558;52.166;5.004;2023-05-29T02:13:29;13.57;;;12.68;;
71383;SDS011;67558;52.166;5.004;2023-05-29T02:15:54;14.50;;;13.80;;
71383;SDS011;67558;52.166;5.004;2023-05-29T02:18:20;14.00;;;12.93;;
71383;SDS011;67558;52.166;5.004;2023-05-29T02:20:45;12.77;;;11.90;;
71383;SDS011;67558;52.166;5.004;2023-05-29T02:23:11;12.63;;;11.75;;
71383;SDS011;67558;52.166;5.004;2023-05-29T02:25:37;13.02;;;12.20;;
71383;SDS011;67558;52.166;5.004;2023-05-29T02:28:03;12.18;;;11.13;;
71383;SDS011;67558;52.166;5.004;2023-05-29T02:30:29;22.85;;;22.00;;
71383;SDS011;67558;52.166;5.004;2023-05-29T02:32:54;14.48;;;13.25;;
71383;SDS011;67558;52.166;5.004;2023-05-29T02:35:20;14.35;;;12.95;;
71383;SDS011;67558;52.166;5.004;2023-05-29T02:37:47;14.63;;;13.75;;
71383;SDS011;67558;52.166;5.004;2023-05-29T02:40:14;13.60;;;12.50;;
71383;SDS011;67558;52.166;5.004;2023-05-29T02:42:39;12.82;;;12.20;;
71383;SDS011;67558;52.166;5.004;2023-05-29T02:45:05;13.90;;;13.13;;
71383;SDS011;67558;52.166;5.004;2023-05-29T02:47:30;13.40;;;12.65;;
71383;SDS011;67558;52.166;5.004;2023-05-29T02:49:56;14.00;;;13.15;;
71383;SDS011;67558;52.166;5.004;2023-05-29T02:52:21;14.13;;;13.25;;
71383;SDS011;67558;52.166;5.004;2023-05-29T02:54:48;13.55;;;12.60;;
71383;SDS011;67558;52.166;5.004;2023-05-29T02:57:13;13.18;;;12.13;;
71383;SDS011;67558;52.166;5.004;2023-05-29T02:59:39;14.68;;;13.55;;
71383;SDS011;67558;52.166;5.004;2023-05-29T03:02:04;13.65;;;11.38;;
71383;SDS011;67558;52.166;5.004;2023-05-29T03:04:30;13.00;;;12.10;;
71383;SDS011;67558;52.166;5.004;2023-05-29T03:06:55;12.88;;;11.70;;
71383;SDS011;67558;52.166;5.004;2023-05-29T03:09:21;12.75;;;12.20;;
71383;SDS011;67558;52.166;5.004;2023-05-29T03:11:46;12.45;;;11.80;;
71383;SDS011;67558;52.166;5.004;2023-05-29T03:14:14;13.90;;;13.23;;
71383;SDS011;67558;52.166;5.004;2023-05-29T03:16:40;11.68;;;10.95;;
71383;SDS011;67558;52.166;5.004;2023-05-29T03:19:05;12.48;;;11.77;;
71383;SDS011;67558;52.166;5.004;2023-05-29T03:21:32;12.85;;;12.07;;
71383;SDS011;67558;52.166;5.004;2023-05-29T03:23:58;14.18;;;13.48;;
71383;SDS011;67558;52.166;5.004;2023-05-29T03:26:23;14.07;;;13.20;;
71383;SDS011;67558;52.166;5.004;2023-05-29T03:28:48;16.15;;;15.00;;
71383;SDS011;67558;52.166;5.004;2023-05-29T03:31:14;13.32;;;12.75;;
71383;SDS011;67558;52.166;5.004;2023-05-29T03:33:39;13.23;;;12.43;;
71383;SDS011;67558;52.166;5.004;2023-05-29T03:36:05;12.98;;;12.02;;
71383;SDS011;67558;52.166;5.004;2023-05-29T03:38:32;12.55;;;11.60;;
71383;SDS011;67558;52.166;5.004;2023-05-29T03:40:58;12.35;;;11.63;;
71383;SDS011;67558;52.166;5.004;2023-05-29T03:43:23;11.55;;;10.75;;
71383;SDS011;67558;52.166;5.004;2023-05-29T03:45:48;16.05;;;11.93;;
71383;SDS011;67558;52.166;5.004;2023-05-29T03:48:14;13.43;;;12.02;;
71383;SDS011;67558;52.166;5.004;2023-05-29T03:50:40;10.65;;;9.90;;
71383;SDS011;67558;52.166;5.004;2023-05-29T03:53:05;12.75;;;12.15;;
71383;SDS011;67558;52.166;5.004;2023-05-29T03:55:31;12.32;;;11.77;;
71383;SDS011;67558;52.166;5.004;2023-05-29T03:57:56;10.93;;;10.20;;
71383;SDS011;67558;52.166;5.004;2023-05-29T04:00:22;13.02;;;12.38;;
71383;SDS011;67558;52.166;5.004;2023-05-29T04:02:47;13.18;;;12.02;;
71383;SDS011;67558;52.166;5.004;2023-05-29T04:05:12;11.55;;;10.88;;
71383;SDS011;67558;52.166;5.004;2023-05-29T04:07:38;21.27;;;20.50;;
71383;SDS011;67558;52.166;5.004;2023-05-29T04:10:04;13.73;;;12.80;;
71383;SDS011;67558;52.166;5.004;2023-05-29T04:12:31;11.85;;;10.98;;
71383;SDS011;67558;52.166;5.004;2023-05-29T04:14:59;12.20;;;11.10;;
71383;SDS011;67558;52.166;5.004;2023-05-29T04:17:25;12.38;;;11.48;;
71383;SDS011;67558;52.166;5.004;2023-05-29T04:19:50;11.80;;;11.02;;
71383;SDS011;67558;52.166;5.004;2023-05-29T04:22:15;13.52;;;12.55;;
71383;SDS011;67558;52.166;5.004;2023-05-29T04:24:41;15.68;;;12.57;;
71383;SDS011;67558;52.166;5.004;2023-05-29T04:27:07;12.52;;;11.52;;
71383;SDS011;67558;52.166;5.004;2023-05-29T04:29:34;12.98;;;12.15;;
71383;SDS011;67558;52.166;5.004;2023-05-29T04:31:59;12.98;;;11.98;;
71383;SDS011;67558;52.166;5.004;2023-05-29T04:34:28;12.63;;;11.85;;
71383;SDS011;67558;52.166;5.004;2023-05-29T04:36:57;13.57;;;12.95;;
71383;SDS011;67558;52.166;5.004;2023-05-29T04:39:23;13.05;;;12.27;;
71383;SDS011;67558;52.166;5.004;2023-05-29T04:41:49;22.33;;;21.08;;
71383;SDS011;67558;52.166;5.004;2023-05-29T04:44:15;15.02;;;14.23;;
71383;SDS011;67558;52.166;5.004;2023-05-29T04:46:40;15.32;;;14.73;;
71383;SDS011;67558;52.166;5.004;2023-05-29T04:49:09;14.18;;;12.98;;
71383;SDS011;67558;52.166;5.004;2023-05-29T04:51:35;19.27;;;17.65;;
71383;SDS011;67558;52.166;5.004;2023-05-29T04:54:01;13.88;;;12.52;;
71383;SDS011;67558;52.166;5.004;2023-05-29T04:56:27;13.30;;;12.68;;
71383;SDS011;67558;52.166;5.004;2023-05-29T04:58:52;15.38;;;13.98;;
71383;SDS011;67558;52.166;5.004;2023-05-29T05:01:18;14.70;;;13.73;;
71383;SDS011;67558;52.166;5.004;2023-05-29T05:03:44;13.70;;;12.35;;
71383;SDS011;67558;52.166;5.004;2023-05-29T05:06:10;16.40;;;15.45;;
71383;SDS011;67558;52.166;5.004;2023-05-29T05:08:37;13.98;;;12.73;;
71383;SDS011;67558;52.166;5.004;2023-05-29T05:11:02;13.55;;;12.85;;
71383;SDS011;67558;52.166;5.004;2023-05-29T05:13:28;14.00;;;13.05;;
71383;SDS011;67558;52.166;5.004;2023-05-29T05:15:53;14.18;;;13.15;;
71383;SDS011;67558;52.166;5.004;2023-05-29T05:18:19;14.00;;;12.93;;
71383;SDS011;67558;52.166;5.004;2023-05-29T05:20:45;13.07;;;12.18;;
71383;SDS011;67558;52.166;5.004;2023-05-29T05:23:11;27.15;;;26.15;;
71383;SDS011;67558;52.166;5.004;2023-05-29T05:25:37;16.20;;;14.93;;
71383;SDS011;67558;52.166;5.004;2023-05-29T05:28:03;14.20;;;13.60;;
71383;SDS011;67558;52.166;5.004;2023-05-29T05:30:29;14.90;;;13.88;;
71383;SDS011;67558;52.166;5.004;2023-05-29T05:32:55;17.63;;;16.30;;
71383;SDS011;67558;52.166;5.004;2023-05-29T05:35:21;19.05;;;18.05;;
71383;SDS011;67558;52.166;5.004;2023-05-29T05:37:46;15.43;;;14.30;;
71383;SDS011;67558;52.166;5.004;2023-05-29T05:40:12;14.40;;;13.07;;
71383;SDS011;67558;52.166;5.004;2023-05-29T05:42:37;15.57;;;14.63;;
71383;SDS011;67558;52.166;5.004;2023-05-29T05:45:03;16.25;;;15.55;;
71383;SDS011;67558;52.166;5.004;2023-05-29T05:47:29;17.13;;;16.08;;
71383;SDS011;67558;52.166;5.004;2023-05-29T05:49:54;16.38;;;15.35;;
71383;SDS011;67558;52.166;5.004;2023-05-29T05:52:20;17.52;;;16.60;;
71383;SDS011;67558;52.166;5.004;2023-05-29T05:54:47;16.98;;;15.88;;
71383;SDS011;67558;52.166;5.004;2023-05-29T05:57:12;18.77;;;17.48;;
71383;SDS011;67558;52.166;5.004;2023-05-29T05:59:38;19.75;;;18.42;;
71383;SDS011;67558;52.166;5.004;2023-05-29T06:02:04;18.60;;;17.45;;
71383;SDS011;67558;52.166;5.004;2023-05-29T06:04:29;17.67;;;16.27;;
71383;SDS011;67558;52.166;5.004;2023-05-29T06:06:55;20.80;;;19.52;;
71383;SDS011;67558;52.166;5.004;2023-05-29T06:09:20;18.77;;;17.90;;
71383;SDS011;67558;52.166;5.004;2023-05-29T06:11:46;19.23;;;17.77;;
71383;SDS011;67558;52.166;5.004;2023-05-29T06:14:12;17.67;;;16.63;;
71383;SDS011;67558;52.166;5.004;2023-05-29T06:16:38;16.85;;;16.30;;
71383;SDS011;67558;52.166;5.004;2023-05-29T06:19:04;18.20;;;17.40;;
71383;SDS011;67558;52.166;5.004;2023-05-29T06:21:29;17.50;;;16.65;;
71383;SDS011;67558;52.166;5.004;2023-05-29T06:23:54;16.60;;;15.45;;
71383;SDS011;67558;52.166;5.004;2023-05-29T06:26:20;17.45;;;16.10;;
71383;SDS011;67558;52.166;5.004;2023-05-29T06:28:46;16.80;;;15.82;;
71383;SDS011;67558;52.166;5.004;2023-05-29T06:31:11;17.27;;;16.35;;
71383;SDS011;67558;52.166;5.004;2023-05-29T06:33:37;21.20;;;19.83;;
71383;SDS011;67558;52.166;5.004;2023-05-29T06:36:02;20.42;;;19.48;;
71383;SDS011;67558;52.166;5.004;2023-05-29T06:38:28;16.17;;;15.00;;
71383;SDS011;67558;52.166;5.004;2023-05-29T06:40:53;15.13;;;14.18;;
71383;SDS011;67558;52.166;5.004;2023-05-29T06:43:19;18.02;;;17.02;;
71383;SDS011;67558;52.166;5.004;2023-05-29T06:45:44;19.48;;;18.65;;
71383;SDS011;67558;52.166;5.004;2023-05-29T06:48:09;36.45;;;34.53;;
71383;SDS011;67558;52.166;5.004;2023-05-29T06:50:35;19.23;;;17.88;;
71383;SDS011;67558;52.166;5.004;2023-05-29T06:53:00;18.10;;;16.80;;
71383;SDS011;67558;52.166;5.004;2023-05-29T06:55:26;19.13;;;18.05;;
71383;SDS011;67558;52.166;5.004;2023-05-29T06:57:51;18.42;;;16.90;;
71383;SDS011;67558;52.166;5.004;2023-05-29T07:00:17;22.42;;;21.58;;
71383;SDS011;67558;52.166;5.004;2023-05-29T07:02:42;20.23;;;19.45;;
71383;SDS011;67558;52.166;5.004;2023-05-29T07:05:08;21.05;;;19.20;;
71383;SDS011;67558;52.166;5.004;2023-05-29T07:07:33;18.60;;;17.63;;
71383;SDS011;67558;52.166;5.004;2023-05-29T07:09:59;23.58;;;22.42;;
71383;SDS011;67558;52.166;5.004;2023-05-29T07:12:24;18.48;;;17.67;;
71383;SDS011;67558;52.166;5.004;2023-05-29T07:14:50;17.80;;;16.58;;
71383;SDS011;67558;52.166;5.004;2023-05-29T07:17:15;18.23;;;16.88;;
71383;SDS011;67558;52.166;5.004;2023-05-29T07:19:41;16.67;;;15.80;;
71383;SDS011;67558;52.166;5.004;2023-05-29T07:22:06;23.23;;;22.10;;
71383;SDS011;67558;52.166;5.004;2023-05-29T07:24:32;22.00;;;21.08;;
71383;SDS011;67558;52.166;5.004;2023-05-29T07:26:57;20.23;;;19.35;;
71383;SDS011;67558;52.166;5.004;2023-05-29T07:29:23;23.23;;;21.92;;
71383;SDS011;67558;52.166;5.004;2023-05-29T07:31:49;36.10;;;34.40;;
71383;SDS011;67558;52.166;5.004;2023-05-29T07:34:15;20.02;;;19.15;;
71383;SDS011;67558;52.166;5.004;2023-05-29T07:39:25;19.42;;;18.58;;
71383;SDS011;67558;52.166;5.004;2023-05-29T07:41:51;39.65;;;37.83;;
71383;SDS011;67558;52.166;5.004;2023-05-29T07:44:17;23.90;;;22.48;;
71383;SDS011;67558;52.166;5.004;2023-05-29T07:46:42;21.98;;;20.80;;
71383;SDS011;67558;52.166;5.004;2023-05-29T07:49:08;20.55;;;19.23;;
71383;SDS011;67558;52.166;5.004;2023-05-29T07:51:33;25.08;;;24.23;;
71383;SDS011;67558;52.166;5.004;2023-05-29T07:53:59;22.83;;;21.67;;
71383;SDS011;67558;52.166;5.004;2023-05-29T07:56:24;21.92;;;20.90;;
71383;SDS011;67558;52.166;5.004;2023-05-29T07:58:50;21.38;;;20.38;;
71383;SDS011;67558;52.166;5.004;2023-05-29T08:01:18;25.15;;;23.60;;
71383;SDS011;67558;52.166;5.004;2023-05-29T08:03:44;20.85;;;19.88;;
71383;SDS011;67558;52.166;5.004;2023-05-29T08:06:09;23.55;;;22.48;;
71383;SDS011;67558;52.166;5.004;2023-05-29T08:08:35;25.33;;;24.05;;
71383;SDS011;67558;52.166;5.004;2023-05-29T08:11:00;23.60;;;22.20;;
71383;SDS011;67558;52.166;5.004;2023-05-29T08:13:26;22.65;;;21.73;;
71383;SDS011;67558;52.166;5.004;2023-05-29T08:15:53;20.00;;;18.95;;
71383;SDS011;67558;52.166;5.004;2023-05-29T08:18:18;22.92;;;21.83;;
71383;SDS011;67558;52.166;5.004;2023-05-29T08:20:43;20.77;;;19.42;;
71383;SDS011;67558;52.166;5.004;2023-05-29T08:23:09;23.83;;;22.60;;
71383;SDS011;67558;52.166;5.004;2023-05-29T08:25:35;23.73;;;22.52;;
71383;SDS011;67558;52.166;5.004;2023-05-29T08:28:01;23.13;;;22.02;;
71383;SDS011;67558;52.166;5.004;2023-05-29T08:30:26;20.60;;;19.73;;
71383;SDS011;67558;52.166;5.004;2023-05-29T08:32:51;21.92;;;21.00;;
71383;SDS011;67558;52.166;5.004;2023-05-29T08:35:17;23.50;;;22.40;;
71383;SDS011;67558;52.166;5.004;2023-05-29T08:37:42;21.52;;;20.05;;
71383;SDS011;67558;52.166;5.004;2023-05-29T08:40:09;22.05;;;20.98;;
71383;SDS011;67558;52.166;5.004;2023-05-29T08:42:51;23.15;;;21.98;;
71383;SDS011;67558;52.166;5.004;2023-05-29T08:45:27;20.48;;;19.38;;
71383;SDS011;67558;52.166;5.004;2023-05-29T08:47:54;24.95;;;23.92;;
71383;SDS011;67558;52.166;5.004;2023-05-29T08:50:22;24.05;;;22.83;;
71383;SDS011;67558;52.166;5.004;2023-05-29T08:52:48;22.65;;;21.52;;
71383;SDS011;67558;52.166;5.004;2023-05-29T08:55:14;20.60;;;18.73;;
71383;SDS011;67558;52.166;5.004;2023-05-29T08:57:40;22.33;;;21.35;;
71383;SDS011;67558;52.166;5.004;2023-05-29T09:00:08;25.67;;;24.55;;
71383;SDS011;67558;52.166;5.004;2023-05-29T09:02:40;24.48;;;23.27;;
71383;SDS011;67558;52.166;5.004;2023-05-29T09:05:08;21.92;;;20.88;;
71383;SDS011;67558;52.166;5.004;2023-05-29T09:07:35;22.45;;;21.55;;
71383;SDS011;67558;52.166;5.004;2023-05-29T09:10:03;22.48;;;20.73;;
71383;SDS011;67558;52.166;5.004;2023-05-29T09:12:31;24.17;;;22.92;;
71383;SDS011;67558;52.166;5.004;2023-05-29T09:14:56;23.70;;;22.40;;
71383;SDS011;67558;52.166;5.004;2023-05-29T09:17:22;26.73;;;25.42;;
71383;SDS011;67558;52.166;5.004;2023-05-29T09:19:48;21.88;;;20.85;;
71383;SDS011;67558;52.166;5.004;2023-05-29T09:22:16;23.35;;;22.15;;
71383;SDS011;67558;52.166;5.004;2023-05-29T09:24:41;24.55;;;23.70;;
71383;SDS011;67558;52.166;5.004;2023-05-29T09:27:10;21.38;;;20.40;;
71383;SDS011;67558;52.166;5.004;2023-05-29T09:29:43;24.02;;;22.77;;
71383;SDS011;67558;52.166;5.004;2023-05-29T09:32:12;23.05;;;21.65;;
71383;SDS011;67558;52.166;5.004;2023-05-29T09:34:42;24.23;;;23.38;;
71383;SDS011;67558;52.166;5.004;2023-05-29T09:37:08;24.05;;;22.95;;
71383;SDS011;67558;52.166;5.004;2023-05-29T09:39:46;25.05;;;23.75;;
71383;SDS011;67558;52.166;5.004;2023-05-29T09:42:16;22.42;;;21.42;;
71383;SDS011;67558;52.166;5.004;2023-05-29T09:44:44;23.63;;;22.40;;
71383;SDS011;67558;52.166;5.004;2023-05-29T09:47:18;25.02;;;24.15;;
71383;SDS011;67558;52.166;5.004;2023-05-29T09:49:44;23.00;;;22.02;;
71383;SDS011;67558;52.166;5.004;2023-05-29T09:52:11;21.50;;;20.20;;
71383;SDS011;67558;52.166;5.004;2023-05-29T09:54:41;23.70;;;22.55;;
71383;SDS011;67558;52.166;5.004;2023-05-29T09:57:10;23.75;;;22.40;;
71383;SDS011;67558;52.166;5.004;2023-05-29T09:59:37;39.70;;;38.33;;
71383;SDS011;67558;52.166;5.004;2023-05-29T10:02:04;27.90;;;26.83;;
71383;SDS011;67558;52.166;5.004;2023-05-29T10:04:32;24.77;;;23.80;;
71383;SDS011;67558;52.166;5.004;2023-05-29T10:06:58;26.13;;;24.83;;
71383;SDS011;67558;52.166;5.004;2023-05-29T10:09:29;45.10;;;43.33;;
71383;SDS011;67558;52.166;5.004;2023-05-29T10:11:56;25.67;;;24.58;;
71383;SDS011;67558;52.166;5.004;2023-05-29T10:14:27;29.98;;;28.65;;
71383;SDS011;67558;52.166;5.004;2023-05-29T10:16:56;24.75;;;23.65;;
71383;SDS011;67558;52.166;5.004;2023-05-29T10:19:27;24.02;;;22.92;;
71383;SDS011;67558;52.166;5.004;2023-05-29T10:21:55;25.88;;;24.38;;
71383;SDS011;67558;52.166;5.004;2023-05-29T10:24:22;25.83;;;24.73;;
71383;SDS011;67558;52.166;5.004;2023-05-29T10:26:48;26.08;;;25.08;;
71383;SDS011;67558;52.166;5.004;2023-05-29T10:35:24;25.05;;;23.75;;
71383;SDS011;67558;52.166;5.004;2023-05-29T10:38:12;24.85;;;23.55;;
71383;SDS011;67558;52.166;5.004;2023-05-29T10:40:40;22.08;;;20.98;;
71383;SDS011;67558;52.166;5.004;2023-05-29T10:43:05;23.10;;;22.27;;
71383;SDS011;67558;52.166;5.004;2023-05-29T10:50:37;27.55;;;26.35;;
71383;SDS011;67558;52.166;5.004;2023-05-29T10:53:22;23.38;;;22.27;;
71383;SDS011;67558;52.166;5.004;2023-05-29T10:55:49;26.20;;;24.85;;
71383;SDS011;67558;52.166;5.004;2023-05-29T10:58:20;27.75;;;26.55;;
71383;SDS011;67558;52.166;5.004;2023-05-29T11:00:48;25.25;;;24.13;;
71383;SDS011;67558;52.166;5.004;2023-05-29T11:03:23;26.55;;;25.20;;
71383;SDS011;67558;52.166;5.004;2023-05-29T11:05:57;30.50;;;28.92;;
71383;SDS011;67558;52.166;5.004;2023-05-29T11:08:36;26.52;;;25.08;;
71383;SDS011;67558;52.166;5.004;2023-05-29T11:11:28;27.95;;;26.40;;
71383;SDS011;67558;52.166;5.004;2023-05-29T11:13:56;27.25;;;26.08;;
71383;SDS011;67558;52.166;5.004;2023-05-29T11:18:53;29.02;;;27.33;;
71383;SDS011;67558;52.166;5.004;2023-05-29T11:21:23;27.42;;;26.17;;
71383;SDS011;67558;52.166;5.004;2023-05-29T11:24:33;29.35;;;27.33;;
71383;SDS011;67558;52.166;5.004;2023-05-29T11:27:02;25.85;;;24.55;;
71383;SDS011;67558;52.166;5.004;2023-05-29T11:29:31;27.52;;;26.42;;
71383;SDS011;67558;52.166;5.004;2023-05-29T11:32:03;27.05;;;25.95;;
71383;SDS011;67558;52.166;5.004;2023-05-29T11:34:31;28.05;;;26.48;;
71383;SDS011;67558;52.166;5.004;2023-05-29T11:36:58;27.33;;;26.13;;
71383;SDS011;67558;52.166;5.004;2023-05-29T11:39:27;28.40;;;27.30;;
71383;SDS011;67558;52.166;5.004;2023-05-29T11:41:53;29.38;;;27.60;;
71383;SDS011;67558;52.166;5.004;2023-05-29T11:44:20;28.40;;;27.10;;
71383;SDS011;67558;52.166;5.004;2023-05-29T11:46:45;30.23;;;28.55;;
71383;SDS011;67558;52.166;5.004;2023-05-29T11:49:11;28.80;;;27.30;;
71383;SDS011;67558;52.166;5.004;2023-05-29T11:51:36;28.48;;;27.08;;
71383;SDS011;67558;52.166;5.004;2023-05-29T11:54:02;26.05;;;24.55;;
71383;SDS011;67558;52.166;5.004;2023-05-29T11:56:28;28.25;;;26.50;;
71383;SDS011;67558;52.166;5.004;2023-05-29T11:58:55;27.65;;;26.17;;
71383;SDS011;67558;52.166;5.004;2023-05-29T12:01:24;26.30;;;25.30;;
71383;SDS011;67558;52.166;5.004;2023-05-29T12:03:50;28.23;;;26.77;;
71383;SDS011;67558;52.166;5.004;2023-05-29T12:06:15;28.15;;;26.45;;
71383;SDS011;67558;52.166;5.004;2023-05-29T12:08:41;27.88;;;26.40;;
71383;SDS011;67558;52.166;5.004;2023-05-29T12:11:06;37.72;;;36.28;;
71383;SDS011;67558;52.166;5.004;2023-05-29T12:13:32;31.38;;;29.85;;
71383;SDS011;67558;52.166;5.004;2023-05-29T12:15:58;29.08;;;27.70;;
71383;SDS011;67558;52.166;5.004;2023-05-29T12:18:26;29.17;;;27.60;;
71383;SDS011;67558;52.166;5.004;2023-05-29T12:20:59;31.90;;;30.65;;
71383;SDS011;67558;52.166;5.004;2023-05-29T12:23:25;27.73;;;26.73;;
71383;SDS011;67558;52.166;5.004;2023-05-29T12:25:52;30.45;;;28.38;;
71383;SDS011;67558;52.166;5.004;2023-05-29T12:28:18;29.15;;;27.65;;
71383;SDS011;67558;52.166;5.004;2023-05-29T12:30:44;26.90;;;25.40;;
71383;SDS011;67558;52.166;5.004;2023-05-29T12:33:30;30.15;;;28.50;;
71383;SDS011;67558;52.166;5.004;2023-05-29T12:36:04;28.85;;;27.55;;
71383;SDS011;67558;52.166;5.004;2023-05-29T12:38:31;29.70;;;28.55;;
71383;SDS011;67558;52.166;5.004;2023-05-29T12:40:57;31.55;;;30.23;;
71383;SDS011;67558;52.166;5.004;2023-05-29T12:43:22;30.25;;;28.80;;
71383;SDS011;67558;52.166;5.004;2023-05-29T12:45:53;30.45;;;29.17;;
71383;SDS011;67558;52.166;5.004;2023-05-29T12:48:20;28.42;;;27.17;;
71383;SDS011;67558;52.166;5.004;2023-05-29T12:50:47;28.45;;;27.13;;
71383;SDS011;67558;52.166;5.004;2023-05-29T12:53:15;29.08;;;27.27;;
71383;SDS011;67558;52.166;5.004;2023-05-29T12:55:41;26.50;;;25.15;;
71383;SDS011;67558;52.166;5.004;2023-05-29T12:58:09;27.98;;;26.75;;
71383;SDS011;67558;52.166;5.004;2023-05-29T13:00:36;29.42;;;27.80;;
71383;SDS011;67558;52.166;5.004;2023-05-29T13:03:04;27.52;;;25.88;;
71383;SDS011;67558;52.166;5.004;2023-05-29T13:05:31;24.98;;;23.60;;
71383;SDS011;67558;52.166;5.004;2023-05-29T13:07:56;26.55;;;25.10;;
71383;SDS011;67558;52.166;5.004;2023-05-29T13:10:22;26.10;;;24.90;;
71383;SDS011;67558;52.166;5.004;2023-05-29T13:12:48;30.35;;;29.02;;
71383;SDS011;67558;52.166;5.004;2023-05-29T13:15:18;27.13;;;25.88;;
71383;SDS011;67558;52.166;5.004;2023-05-29T13:17:44;27.75;;;26.30;;
71383;SDS011;67558;52.166;5.004;2023-05-29T13:20:10;30.85;;;29.52;;
71383;SDS011;67558;52.166;5.004;2023-05-29T13:22:37;29.20;;;27.25;;
71383;SDS011;67558;52.166;5.004;2023-05-29T13:25:04;26.88;;;25.55;;
71383;SDS011;67558;52.166;5.004;2023-05-29T13:27:31;24.85;;;23.58;;
71383;SDS011;67558;52.166;5.004;2023-05-29T13:30:01;25.38;;;24.02;;
71383;SDS011;67558;52.166;5.004;2023-05-29T13:32:28;26.83;;;25.40;;
71383;SDS011;67558;52.166;5.004;2023-05-29T13:34:53;29.45;;;27.80;;
71383;SDS011;67558;52.166;5.004;2023-05-29T13:37:19;29.73;;;28.10;;
71383;SDS011;67558;52.166;5.004;2023-05-29T13:39:44;26.30;;;24.80;;
71383;SDS011;67558;52.166;5.004;2023-05-29T13:42:09;35.55;;;34.03;;
71383;SDS011;67558;52.166;5.004;2023-05-29T13:44:37;29.58;;;27.98;;
71383;SDS011;67558;52.166;5.004;2023-05-29T13:47:03;27.38;;;26.02;;
71383;SDS011;67558;52.166;5.004;2023-05-29T13:49:29;28.77;;;27.45;;
71383;SDS011;67558;52.166;5.004;2023-05-29T13:51:55;28.35;;;27.20;;
71383;SDS011;67558;52.166;5.004;2023-05-29T13:54:20;26.73;;;25.45;;
71383;SDS011;67558;52.166;5.004;2023-05-29T13:56:47;29.25;;;28.15;;
71383;SDS011;67558;52.166;5.004;2023-05-29T13:59:12;26.02;;;24.80;;
71383;SDS011;67558;52.166;5.004;2023-05-29T14:01:37;33.90;;;32.45;;
71383;SDS011;67558;52.166;5.004;2023-05-29T14:04:03;30.15;;;28.33;;
71383;SDS011;67558;52.166;5.004;2023-05-29T14:06:28;49.83;;;47.75;;
71383;SDS011;67558;52.166;5.004;2023-05-29T14:08:53;31.42;;;29.60;;
71383;SDS011;67558;52.166;5.004;2023-05-29T14:11:20;29.17;;;28.08;;
71383;SDS011;67558;52.166;5.004;2023-05-29T14:13:46;26.92;;;25.33;;
71383;SDS011;67558;52.166;5.004;2023-05-29T14:16:11;30.02;;;28.00;;
71383;SDS011;67558;52.166;5.004;2023-05-29T14:18:36;29.20;;;27.60;;
71383;SDS011;67558;52.166;5.004;2023-05-29T14:21:02;29.80;;;28.05;;
71383;SDS011;67558;52.166;5.004;2023-05-29T14:23:27;30.63;;;29.30;;
71383;SDS011;67558;52.166;5.004;2023-05-29T14:25:52;26.23;;;25.00;;
71383;SDS011;67558;52.166;5.004;2023-05-29T14:28:18;28.70;;;27.58;;
71383;SDS011;67558;52.166;5.004;2023-05-29T14:30:43;28.13;;;26.70;;
71383;SDS011;67558;52.166;5.004;2023-05-29T14:33:09;30.13;;;28.10;;
71383;SDS011;67558;52.166;5.004;2023-05-29T14:35:34;31.67;;;30.10;;
71383;SDS011;67558;52.166;5.004;2023-05-29T14:37:59;29.27;;;27.92;;
71383;SDS011;67558;52.166;5.004;2023-05-29T14:40:25;29.40;;;27.90;;
71383;SDS011;67558;52.166;5.004;2023-05-29T14:42:51;28.38;;;27.08;;